createdAt,value
2023-03-27T00:02:24.366Z,83.71
2023-03-27T00:04:54.407Z,84.38
2023-03-27T00:07:22.553Z,84.08
2023-03-27T00:09:51.595Z,84.58
2023-03-27T00:12:19.231Z,84.75
2023-03-27T00:14:47.535Z,84.49
2023-03-27T00:17:15.438Z,84.58
2023-03-27T00:19:44.170Z,83.85
2023-03-27T00:22:11.947Z,84.01
2023-03-27T00:24:39.545Z,83.69
2023-03-27T00:27:09.131Z,83.61
2023-03-27T00:29:37.087Z,81.20
2023-03-27T00:32:05.604Z,81.65
2023-03-27T00:34:33.244Z,81.27
2023-03-27T00:37:01.087Z,81.22
2023-03-27T00:39:28.900Z,81.18
2023-03-27T00:41:56.516Z,81.20
2023-03-27T00:44:31.150Z,81.55
2023-03-27T00:46:59.157Z,81.83
2023-03-27T00:49:31.503Z,81.37
2023-03-27T00:52:00.939Z,81.87
2023-03-27T00:54:31.718Z,81.63
2023-03-27T00:57:02.942Z,79.85
2023-03-27T00:59:37.865Z,80.23
2023-03-27T01:02:06.744Z,79.20
2023-03-27T01:04:37.031Z,78.39
2023-03-27T01:07:07.274Z,78.46
2023-03-27T01:09:35.536Z,79.17
2023-03-27T01:12:20.641Z,78.57
2023-03-27T01:15:00.667Z,78.25
2023-03-27T01:17:42.906Z,77.54
2023-03-27T01:20:55.595Z,77.98
2023-03-27T01:24:17.546Z,77.97
2023-03-27T01:27:05.430Z,77.01
2023-03-27T01:29:54.066Z,78.20
2023-03-27T01:32:50.574Z,77.74
2023-03-27T01:35:29.905Z,77.92
2023-03-27T01:38:28.671Z,78.41
2023-03-27T01:41:02.608Z,76.99
2023-03-27T01:43:36.454Z,78.14
2023-03-27T01:46:08.500Z,77.00
2023-03-27T01:48:41.751Z,76.09
2023-03-27T01:51:13.644Z,76.04
2023-03-27T01:53:46.034Z,76.37
2023-03-27T01:56:26.096Z,75.72
2023-03-27T01:58:58.540Z,74.06
2023-03-27T02:01:32.646Z,74.93
2023-03-27T02:04:04.077Z,74.19
2023-03-27T02:06:35.308Z,74.03
2023-03-27T02:09:06.676Z,74.69
2023-03-27T02:11:39.162Z,73.30
2023-03-27T02:14:10.379Z,72.29
2023-03-27T02:16:43.319Z,73.29
2023-03-27T02:19:19.718Z,72.92
2023-03-27T02:21:48.372Z,73.17
2023-03-27T02:24:18.667Z,71.41
2023-03-27T02:26:55.660Z,72.74
2023-03-27T02:29:51.579Z,72.64
2023-03-27T02:32:32.340Z,72.08
2023-03-27T02:35:12.494Z,72.96
2023-03-27T02:37:51.660Z,73.15
2023-03-27T02:40:30.595Z,72.70
2023-03-27T02:43:06.578Z,73.34
2023-03-27T02:45:48.935Z,73.86
2023-03-27T02:48:23.955Z,72.71
2023-03-27T02:50:56.620Z,74.06
2023-03-27T02:53:27.076Z,73.68
2023-03-27T02:55:57.710Z,73.71
2023-03-27T02:58:35.068Z,74.05
2023-03-27T03:01:09.299Z,74.66
2023-03-27T03:04:07.399Z,74.31
2023-03-27T03:06:35.960Z,73.68
2023-03-27T03:09:06.185Z,74.12
2023-03-27T03:11:36.302Z,73.80
2023-03-27T03:14:05.417Z,74.67
2023-03-27T03:16:33.654Z,73.66
2023-03-27T03:19:01.914Z,73.55
2023-03-27T03:21:29.695Z,74.07
2023-03-27T03:23:58.284Z,74.14
2023-03-27T03:26:26.978Z,72.64
2023-03-27T03:29:00.964Z,72.55
2023-03-27T03:31:44.379Z,72.88
2023-03-27T03:34:13.248Z,72.05
2023-03-27T03:36:42.158Z,72.65
2023-03-27T03:39:11.363Z,72.87
2023-03-27T03:41:39.159Z,72.00
2023-03-27T03:44:06.791Z,70.34
2023-03-27T03:46:35.940Z,71.02
2023-03-27T03:49:04.592Z,71.31
2023-03-27T03:51:32.627Z,70.63
2023-03-27T03:54:01.253Z,70.96
2023-03-27T03:56:30.492Z,70.65
2023-03-27T03:58:58.762Z,70.99
2023-03-27T04:01:27.987Z,71.31
2023-03-27T04:03:56.959Z,72.10
2023-03-27T04:06:25.600Z,70.64
2023-03-27T04:08:53.914Z,71.72
2023-03-27T04:11:21.591Z,71.52
2023-03-27T04:13:49.770Z,72.26
2023-03-27T04:16:17.832Z,72.57
2023-03-27T04:18:46.378Z,71.90
2023-03-27T04:21:15.694Z,72.21
2023-03-27T04:23:43.895Z,72.61
2023-03-27T04:26:12.687Z,72.90
2023-03-27T04:28:41.877Z,72.29
2023-03-27T04:31:10.916Z,73.06
2023-03-27T04:33:46.728Z,72.61
2023-03-27T04:36:15.998Z,71.94
2023-03-27T04:38:44.215Z,71.90
2023-03-27T04:41:12.062Z,72.15
2023-03-27T04:43:42.112Z,72.79
2023-03-27T04:46:10.039Z,72.70
2023-03-27T04:48:39.058Z,72.31
2023-03-27T04:51:08.310Z,72.43
2023-03-27T04:53:37.952Z,72.52
2023-03-27T04:56:07.109Z,72.16
2023-03-27T04:58:37.339Z,72.14
2023-03-27T05:01:05.966Z,72.82
2023-03-27T05:03:34.843Z,72.65
2023-03-27T05:06:04.052Z,72.61
2023-03-27T05:08:31.726Z,72.05
2023-03-27T05:11:00.860Z,72.13
2023-03-27T05:13:29.293Z,72.82
2023-03-27T05:15:59.099Z,73.17
2023-03-27T05:18:27.482Z,72.49
2023-03-27T05:20:55.647Z,72.66
2023-03-27T05:23:23.649Z,71.82
2023-03-27T05:26:00.220Z,72.27
2023-03-27T05:28:30.534Z,72.60
2023-03-27T05:30:58.877Z,72.23
2023-03-27T05:33:26.992Z,71.50
2023-03-27T05:35:54.844Z,72.17
2023-03-27T05:38:24.479Z,72.33
2023-03-27T05:40:52.627Z,71.71
2023-03-27T05:43:20.434Z,71.01
2023-03-27T05:45:49.564Z,71.32
2023-03-27T05:48:17.420Z,69.85
2023-03-27T05:50:45.219Z,70.54
2023-03-27T05:53:13.125Z,70.97
2023-03-27T05:55:41.034Z,69.98
2023-03-27T05:58:10.094Z,69.43
2023-03-27T06:00:38.585Z,68.27
2023-03-27T06:03:08.353Z,68.81
2023-03-27T06:05:36.894Z,67.25
2023-03-27T06:08:04.889Z,66.57
2023-03-27T06:10:33.860Z,66.57
2023-03-27T06:13:02.857Z,66.23
2023-03-27T06:15:31.034Z,65.99
2023-03-27T06:17:58.723Z,66.39
2023-03-27T06:20:28.354Z,66.81
2023-03-27T06:22:59.426Z,68.11
2023-03-27T06:25:28.329Z,67.14
2023-03-27T06:27:56.053Z,67.45
2023-03-27T06:30:25.727Z,66.59
2023-03-27T06:32:57.448Z,66.82
2023-03-27T06:35:27.591Z,67.01
2023-03-27T06:37:56.745Z,66.61
2023-03-27T06:40:27.846Z,65.50
2023-03-27T06:42:58.424Z,65.37
2023-03-27T06:45:28.339Z,65.74
2023-03-27T06:48:15.301Z,65.26
2023-03-27T06:50:49.648Z,65.69
2023-03-27T06:55:49.198Z,63.07
2023-03-27T06:58:18.697Z,63.71
2023-03-27T07:00:49.113Z,62.77
2023-03-27T07:03:18.008Z,61.57
2023-03-27T07:05:48.881Z,61.02
2023-03-27T07:08:23.216Z,60.86
2023-03-27T07:11:07.452Z,59.89
2023-03-27T07:13:39.433Z,59.49
2023-03-27T07:16:08.262Z,57.96
2023-03-27T07:18:36.083Z,55.52
2023-03-27T07:21:05.946Z,55.43
2023-03-27T07:23:33.566Z,57.42
2023-03-27T07:26:02.128Z,58.47
2023-03-27T07:28:29.757Z,59.51
2023-03-27T07:30:57.551Z,58.94
2023-03-27T07:33:25.441Z,58.61
2023-03-27T07:35:53.404Z,58.80
2023-03-27T07:38:22.520Z,58.37
2023-03-27T07:40:50.438Z,58.30
2023-03-27T07:43:18.284Z,59.26
2023-03-27T07:45:46.064Z,57.17
2023-03-27T07:48:16.147Z,56.22
2023-03-27T07:50:44.903Z,54.82
2023-03-27T07:53:32.879Z,54.80
2023-03-27T07:56:02.769Z,55.60
2023-03-27T07:58:30.470Z,53.76
2023-03-27T08:01:02.209Z,52.75
2023-03-27T08:03:31.461Z,50.49
2023-03-27T08:06:01.195Z,52.79
2023-03-27T08:08:29.023Z,51.90
2023-03-27T08:10:57.904Z,50.25
2023-03-27T08:13:26.972Z,51.12
2023-03-27T08:16:03.473Z,49.19
2023-03-27T08:18:31.117Z,49.71
2023-03-27T08:20:59.123Z,49.10
2023-03-27T08:23:27.321Z,48.67
2023-03-27T08:26:00.448Z,50.85
2023-03-27T08:28:29.936Z,53.31
2023-03-27T08:31:02.544Z,53.50
2023-03-27T08:33:30.815Z,55.56
2023-03-27T08:35:59.243Z,55.83
2023-03-27T08:38:28.617Z,54.34
2023-03-27T08:40:59.149Z,52.12
2023-03-27T08:43:31.607Z,51.74
2023-03-27T08:46:03.283Z,52.07
2023-03-27T08:48:36.357Z,51.59
2023-03-27T08:51:08.449Z,50.56
2023-03-27T08:53:42.889Z,52.02
2023-03-27T08:56:15.043Z,49.60
2023-03-27T08:58:45.345Z,48.19
2023-03-27T09:01:20.276Z,47.11
2023-03-27T09:03:57.252Z,45.87
2023-03-27T09:06:27.788Z,45.80
2023-03-27T09:09:04.687Z,48.50
2023-03-27T09:11:41.842Z,49.04
2023-03-27T09:14:19.282Z,50.54
2023-03-27T09:16:51.067Z,51.38
2023-03-27T09:19:29.076Z,50.89
2023-03-27T09:22:02.611Z,49.45
2023-03-27T09:24:33.869Z,49.84
2023-03-27T09:27:16.305Z,47.90
2023-03-27T09:29:46.135Z,45.59
2023-03-27T09:32:16.766Z,45.58
2023-03-27T09:34:45.088Z,42.70
2023-03-27T09:37:17.460Z,42.94
2023-03-27T09:39:49.303Z,44.30
2023-03-27T09:42:21.967Z,44.25
2023-03-27T09:44:55.844Z,44.75
2023-03-27T09:47:32.273Z,46.52
2023-03-27T09:50:16.634Z,49.05
2023-03-27T09:52:44.309Z,49.63
2023-03-27T09:55:25.231Z,49.60
2023-03-27T09:57:58.853Z,50.01
2023-03-27T10:00:31.551Z,47.53
2023-03-27T10:03:05.719Z,46.20
2023-03-27T10:05:33.724Z,45.02
2023-03-27T10:08:02.491Z,43.07
2023-03-27T10:10:32.656Z,41.39
2023-03-27T10:13:03.260Z,39.14
2023-03-27T10:15:38.673Z,38.29
2023-03-27T10:18:09.171Z,42.86
2023-03-27T10:20:37.400Z,45.00
2023-03-27T10:23:09.702Z,45.81
2023-03-27T10:25:39.102Z,44.32
2023-03-27T10:28:16.694Z,43.11
2023-03-27T10:30:46.014Z,40.71
2023-03-27T10:33:14.101Z,37.83
2023-03-27T10:35:44.919Z,37.37
2023-03-27T10:38:15.268Z,38.55
2023-03-27T10:40:48.838Z,40.87
2023-03-27T10:43:25.607Z,42.03
2023-03-27T10:45:57.369Z,43.46
2023-03-27T10:48:38.960Z,44.04
2023-03-27T10:51:09.342Z,43.05
2023-03-27T10:53:44.344Z,38.63
2023-03-27T10:56:18.171Z,36.85
2023-03-27T10:58:50.356Z,37.81
2023-03-27T11:01:26.401Z,38.62
2023-03-27T11:04:00.680Z,40.86
2023-03-27T11:06:34.381Z,42.44
2023-03-27T11:09:06.466Z,44.05
2023-03-27T11:11:38.420Z,46.63
2023-03-27T11:14:14.180Z,48.52
2023-03-27T11:16:48.716Z,52.18
2023-03-27T11:19:32.117Z,57.29
2023-03-27T11:22:04.692Z,63.65
2023-03-27T11:24:38.340Z,67.13
2023-03-27T11:27:13.924Z,72.40
2023-03-27T11:29:51.168Z,72.34
2023-03-27T11:32:29.526Z,71.45
2023-03-27T11:35:04.231Z,66.51
2023-03-27T11:37:41.426Z,60.53
2023-03-27T11:40:17.020Z,59.16
2023-03-27T11:42:46.516Z,55.79
2023-03-27T11:45:16.746Z,55.13
2023-03-27T11:48:11.117Z,50.92
2023-03-27T11:50:48.483Z,49.52
2023-03-27T11:53:39.271Z,49.18
2023-03-27T11:56:32.445Z,46.15
2023-03-27T11:59:14.499Z,46.83
2023-03-27T12:01:48.307Z,45.52
2023-03-27T12:04:36.654Z,47.17
2023-03-27T12:07:15.383Z,45.79
2023-03-27T12:10:05.112Z,44.89
2023-03-27T12:12:55.368Z,47.99
2023-03-27T12:15:54.018Z,45.65
2023-03-27T12:18:36.094Z,44.04
2023-03-27T12:21:17.901Z,44.13
2023-03-27T12:24:16.188Z,43.44
2023-03-27T12:26:57.858Z,48.03
2023-03-27T12:29:45.827Z,66.49
2023-03-27T12:32:26.616Z,73.49
2023-03-27T12:34:57.182Z,74.46
2023-03-27T12:37:30.105Z,76.57
2023-03-27T12:40:00.139Z,75.92
2023-03-27T12:42:44.421Z,75.95
2023-03-27T12:45:18.277Z,76.00
2023-03-27T12:48:04.780Z,75.24
2023-03-27T12:50:35.588Z,70.73
2023-03-27T12:53:06.437Z,67.58
2023-03-27T12:55:35.823Z,66.44
2023-03-27T12:58:05.899Z,64.70
2023-03-27T13:00:34.482Z,65.75
2023-03-27T13:03:28.455Z,67.15
2023-03-27T13:06:14.262Z,60.37
2023-03-27T13:08:55.447Z,62.83
2023-03-27T13:11:37.378Z,61.52
2023-03-27T13:14:33.326Z,63.45
2023-03-27T13:17:30.327Z,64.90
2023-03-27T13:20:09.848Z,63.34
2023-03-27T13:23:01.983Z,66.15
2023-03-27T13:25:41.119Z,67.00
2023-03-27T13:28:28.312Z,58.29
2023-03-27T13:30:58.367Z,60.30
2023-03-27T13:33:39.813Z,58.31
2023-03-27T13:36:12.649Z,58.12
2023-03-27T13:39:15.312Z,61.40
2023-03-27T13:41:58.904Z,62.26
2023-03-27T13:44:35.821Z,62.88
2023-03-27T13:47:24.052Z,58.89
2023-03-27T13:50:17.893Z,55.34
2023-03-27T13:53:22.432Z,59.93
2023-03-27T13:56:07.233Z,58.01
2023-03-27T13:58:56.700Z,56.09
2023-03-27T14:01:48.383Z,55.63
2023-03-27T14:04:30.548Z,53.53
2023-03-27T14:07:41.287Z,53.02
2023-03-27T14:10:28.716Z,56.52
2023-03-27T14:13:15.633Z,59.38
2023-03-27T14:16:16.223Z,58.89
2023-03-27T14:19:21.780Z,59.48
2023-03-27T14:21:54.000Z,58.58
2023-03-27T14:24:30.412Z,58.56
2023-03-27T14:26:59.564Z,58.41
2023-03-27T14:29:28.904Z,58.96
2023-03-27T14:32:04.928Z,57.45
2023-03-27T14:34:47.366Z,57.42
2023-03-27T14:37:28.966Z,57.25
2023-03-27T14:39:57.335Z,56.48
2023-03-27T14:42:31.279Z,55.21
2023-03-27T14:45:11.681Z,56.78
2023-03-27T14:47:40.805Z,54.34
2023-03-27T14:50:14.756Z,51.96
2023-03-27T14:52:43.898Z,50.70
2023-03-27T14:55:14.387Z,50.11
2023-03-27T14:57:42.287Z,51.11
2023-03-27T15:00:16.565Z,46.10
2023-03-27T15:02:48.193Z,47.70
2023-03-27T15:05:18.467Z,46.03
2023-03-27T15:07:49.082Z,42.70
2023-03-27T15:10:22.537Z,43.72
2023-03-27T15:12:50.525Z,41.58
2023-03-27T15:15:23.720Z,43.47
2023-03-27T15:17:55.908Z,41.59
2023-03-27T15:20:28.092Z,40.56
2023-03-27T15:23:01.363Z,39.39
2023-03-27T15:25:36.986Z,39.33
2023-03-27T15:28:10.361Z,37.19
2023-03-27T15:30:43.616Z,38.27
2023-03-27T15:33:20.525Z,38.64
2023-03-27T15:35:52.716Z,38.70
2023-03-27T15:38:28.979Z,39.56
2023-03-27T15:41:03.090Z,40.33
2023-03-27T15:43:31.897Z,41.01
2023-03-27T15:46:14.105Z,41.87
2023-03-27T15:48:45.566Z,41.81
2023-03-27T15:51:15.293Z,40.63
2023-03-27T15:53:45.147Z,39.56
2023-03-27T15:56:22.687Z,39.74
2023-03-27T15:58:54.248Z,39.08
2023-03-27T16:01:24.721Z,40.10
2023-03-27T16:03:56.094Z,40.50
2023-03-27T16:06:30.712Z,40.51
2023-03-27T16:08:59.053Z,38.70
2023-03-27T16:11:39.708Z,38.73
2023-03-27T16:14:20.897Z,38.81
2023-03-27T16:16:49.682Z,39.47
2023-03-27T16:19:18.831Z,40.46
2023-03-27T16:21:55.418Z,39.88
2023-03-27T16:24:23.110Z,41.40
2023-03-27T16:26:52.621Z,40.55
2023-03-27T16:29:22.101Z,41.72
2023-03-27T16:31:49.793Z,42.15
2023-03-27T16:34:22.207Z,43.81
2023-03-27T16:36:51.386Z,42.86
2023-03-27T16:39:19.538Z,44.15
2023-03-27T16:41:47.743Z,47.92
2023-03-27T16:44:15.728Z,55.74
2023-03-27T16:46:43.482Z,59.54
2023-03-27T16:49:12.750Z,62.11
2023-03-27T16:51:41.841Z,62.11
2023-03-27T16:54:09.528Z,63.51
2023-03-27T16:56:37.198Z,62.21
2023-03-27T16:59:05.745Z,62.48
2023-03-27T17:01:33.513Z,61.01
2023-03-27T17:04:01.190Z,60.65
2023-03-27T17:06:28.854Z,61.62
2023-03-27T17:08:57.913Z,61.15
2023-03-27T17:11:25.628Z,61.68
2023-03-27T17:13:53.773Z,60.85
2023-03-27T17:16:21.643Z,60.12
2023-03-27T17:18:49.357Z,59.60
2023-03-27T17:21:17.403Z,57.42
2023-03-27T17:23:48.363Z,59.46
2023-03-27T17:26:24.745Z,60.91
2023-03-27T17:28:52.498Z,60.76
2023-03-27T17:31:20.814Z,63.18
2023-03-27T17:33:48.884Z,63.91
2023-03-27T17:36:23.892Z,64.21
2023-03-27T17:38:57.617Z,66.00
2023-03-27T17:41:28.804Z,71.41
2023-03-27T17:43:56.525Z,73.92
2023-03-27T17:46:24.351Z,75.48
2023-03-27T17:48:52.387Z,75.33
2023-03-27T17:51:21.577Z,76.27
2023-03-27T17:53:49.365Z,75.79
2023-03-27T17:56:17.162Z,76.31
2023-03-27T17:58:50.028Z,76.30
2023-03-27T18:01:19.488Z,76.03
2023-03-27T18:03:47.839Z,74.99
2023-03-27T18:06:17.683Z,75.04
2023-03-27T18:08:46.228Z,75.41
2023-03-27T18:11:16.412Z,77.00
2023-03-27T18:13:44.872Z,76.17
2023-03-27T18:16:14.097Z,76.50
2023-03-27T18:18:41.859Z,78.02
2023-03-27T18:21:09.905Z,78.51
2023-03-27T18:23:45.724Z,78.70
2023-03-27T18:26:15.500Z,78.75
2023-03-27T18:28:43.487Z,80.26
2023-03-27T18:31:12.840Z,78.90
2023-03-27T18:33:41.920Z,80.19
2023-03-27T18:36:11.977Z,80.95
2023-03-27T18:38:40.904Z,81.36
2023-03-27T18:41:09.627Z,81.35
2023-03-27T18:43:37.553Z,81.52
2023-03-27T18:46:06.900Z,81.92
2023-03-27T18:48:35.716Z,81.65
2023-03-27T18:51:06.895Z,82.26
2023-03-27T18:53:34.803Z,82.17
2023-03-27T18:56:03.314Z,82.59
2023-03-27T18:58:31.297Z,82.32
2023-03-27T19:01:00.124Z,83.07
2023-03-27T19:03:30.560Z,82.51
2023-03-27T19:06:02.101Z,83.49
2023-03-27T19:08:31.538Z,83.67
2023-03-27T19:10:59.558Z,83.44
2023-03-27T19:13:27.617Z,83.26
2023-03-27T19:15:55.444Z,82.86
2023-03-27T19:18:25.550Z,82.62
2023-03-27T19:20:53.361Z,83.16
2023-03-27T19:23:21.223Z,82.02
2023-03-27T19:25:51.204Z,82.40
2023-03-27T19:28:19.124Z,82.39
2023-03-27T19:30:47.090Z,82.37
2023-03-27T19:33:15.048Z,82.47
2023-03-27T19:35:43.064Z,82.42
2023-03-27T19:38:11.309Z,82.80
2023-03-27T19:40:39.308Z,83.38
2023-03-27T19:43:08.740Z,84.33
2023-03-27T19:45:36.456Z,84.29
2023-03-27T19:48:04.422Z,84.34
2023-03-27T19:50:32.314Z,84.59
2023-03-27T19:53:08.168Z,84.97
2023-03-27T19:55:36.791Z,85.61
2023-03-27T19:58:04.659Z,86.37
2023-03-27T20:00:35.157Z,86.86
2023-03-27T20:03:03.131Z,87.29
2023-03-27T20:05:31.220Z,87.58
2023-03-27T20:07:58.885Z,88.48
2023-03-27T20:10:27.077Z,89.10
2023-03-27T20:12:54.767Z,88.80
2023-03-27T20:15:22.589Z,88.44
2023-03-27T20:17:51.964Z,89.00
2023-03-27T20:20:19.965Z,89.18
2023-03-27T20:22:57.130Z,89.25
2023-03-27T20:25:27.944Z,89.19
2023-03-27T20:27:55.939Z,90.02
2023-03-27T20:30:23.682Z,89.66
2023-03-27T20:32:52.906Z,89.57
2023-03-27T20:35:24.744Z,89.70
2023-03-27T20:37:57.509Z,89.79
2023-03-27T20:40:26.184Z,89.62
2023-03-27T20:43:02.884Z,89.34
2023-03-27T20:45:30.781Z,89.56
2023-03-27T20:48:04.470Z,89.35
2023-03-27T20:50:35.898Z,89.76
2023-03-27T20:53:04.976Z,89.61
2023-03-27T20:55:37.338Z,90.46
2023-03-27T20:58:09.507Z,89.69
2023-03-27T21:00:37.894Z,90.02
2023-03-27T21:03:07.181Z,89.62
2023-03-27T21:05:38.170Z,89.84
2023-03-27T21:08:07.261Z,89.76
2023-03-27T21:10:34.961Z,90.04
2023-03-27T21:13:03.586Z,89.29
2023-03-27T21:15:31.924Z,89.41
2023-03-27T21:17:59.943Z,89.13
2023-03-27T21:20:34.556Z,89.27
2023-03-27T21:23:03.120Z,89.55
2023-03-27T21:25:31.067Z,89.85
2023-03-27T21:27:58.760Z,89.84
2023-03-27T21:30:46.999Z,90.27
2023-03-27T21:33:15.655Z,90.25
2023-03-27T21:35:46.954Z,90.39
2023-03-27T21:38:16.397Z,90.15
2023-03-27T21:40:44.432Z,90.20
2023-03-27T21:43:13.110Z,90.16
2023-03-27T21:45:41.061Z,90.35
2023-03-27T21:48:10.932Z,90.51
2023-03-27T21:50:40.797Z,90.61
2023-03-27T21:53:09.985Z,90.52
2023-03-27T21:55:38.519Z,91.02
2023-03-27T21:58:06.914Z,90.65
2023-03-27T22:00:35.037Z,90.54
2023-03-27T22:03:02.930Z,90.93
2023-03-27T22:05:30.709Z,90.65
2023-03-27T22:07:58.652Z,89.91
2023-03-27T22:10:27.741Z,90.11
2023-03-27T22:12:55.502Z,89.57
2023-03-27T22:15:23.341Z,89.18
2023-03-27T22:17:51.098Z,88.64
2023-03-27T22:20:18.975Z,88.64
2023-03-27T22:22:48.388Z,88.33
2023-03-27T22:25:16.529Z,88.29
2023-03-27T22:27:46.388Z,87.73
2023-03-27T22:30:14.872Z,88.80
2023-03-27T22:32:43.308Z,87.64
2023-03-27T22:35:11.393Z,87.59
2023-03-27T22:37:40.345Z,88.21
2023-03-27T22:40:09.572Z,87.98
2023-03-27T22:42:37.507Z,88.20
2023-03-27T22:45:07.238Z,88.00
2023-03-27T22:47:35.796Z,87.90
2023-03-27T22:50:04.885Z,88.29
2023-03-27T22:52:32.643Z,88.29
2023-03-27T22:55:00.325Z,88.31
2023-03-27T22:57:28.212Z,88.28
2023-03-27T22:59:55.970Z,88.40
2023-03-27T23:02:25.099Z,88.01
2023-03-27T23:04:52.812Z,87.90
2023-03-27T23:07:20.450Z,88.10
2023-03-27T23:09:48.170Z,88.11
2023-03-27T23:12:16.054Z,88.24
2023-03-27T23:14:43.970Z,88.23
2023-03-27T23:17:11.713Z,87.78
2023-03-27T23:19:40.875Z,87.38
2023-03-27T23:22:08.701Z,88.06
2023-03-27T23:24:36.396Z,87.93
2023-03-27T23:27:04.926Z,87.55
2023-03-27T23:29:32.689Z,87.33
2023-03-27T23:32:00.465Z,87.24
2023-03-27T23:34:28.432Z,86.98
2023-03-27T23:36:57.487Z,86.94
2023-03-27T23:39:25.288Z,86.97
2023-03-27T23:41:52.863Z,87.36
2023-03-27T23:44:20.530Z,86.97
2023-03-27T23:46:48.144Z,86.84
2023-03-27T23:49:15.970Z,86.65
2023-03-27T23:51:43.560Z,86.29
2023-03-27T23:54:12.508Z,86.79
2023-03-27T23:56:40.244Z,86.72
2023-03-27T23:59:07.928Z,86.38
